Airfield :
LOGIN :

Register | Disclaimer

   EN    FR    IT 

 










Legend :    VFR   Marginal VFR   IFR   Intensive IFR   Very Intensive IFR
Visi :
Ceiling :
>= 8 km
>= 3000ft
5 to 8 km
1000 to 3000 ft
1500m to 5 km
500 to 1000 ft
800 to 1500m
200 to 500 ft
< 800m
< 200 ft
Symbols :   Thunderstorms  Fog  Heavy snow  Heavy precipitations  Wind > 20 kt
SIGMETs :     Misc.  Thunderstorms  Icing  Turbulence  Mountain Waves  Volcanic Ashes






- Airport Elevation : 218 ft
- IATA code : LBG


LFPB - Paris / Le Bourget

CURRENT METAR :
  • 151800Z AUTO 04007KT 9999 OVC030 01/M04 Q1031 NOSIG

EXPIRED METARs :
  • 151730Z AUTO 02007KT 340V040 9999 OVC029 02/M04 Q1030 NOSIG
  • 151700Z AUTO 04009KT 9999 OVC031 02/M04 Q1030 NOSIG
  • 151630Z AUTO 03009KT 9999 OVC031 02/M04 Q1030 NOSIG
  • 151600Z AUTO 03009KT 9999 OVC031 02/M03 Q1030 NOSIG
  • 151530Z AUTO 01007KT 9999 OVC030 02/M03 Q1029 NOSIG

TAF TAF LFPB
Valid from the 15 at 18:00 until the 16 at 18:00 UTC


151700Z 1518/1618 03008KT 9999 BKN028
TEMPO 1519/1608 CAVOK
BECMG 1609/1611 4000 -SN BKN006 BKN014
PROB40
TEMPO 1613/1616 19015G25KT 1500 SN
TEMPO 1617/1618 SNRA
PROB40
TEMPO 1617/1618 FZRA
ATIS : +33 1 48 62 43 92



MET'MAP, your aeronautical weather chart ! - Copyright ORBIFLY December 2007 - Disclaimer

ORBIFLY MET'MAP TEAM :

Programming & Development : Alexandra Zaïnal
Concept & original design : Baudouin d'Aumeries
Assistance for programming : Marc-Olivier Méhu
Technical & hardware support : Manuel Goepfert

Contact : metmap@orbifly.com




SOURCES & CREDITS :

   NOAA